Time;durP1;ratioP1;P1;durP2;ratioP2;P2;SDS_P1;SDS_P2;PMS_P1;PMS_P2;Temp;Humidity;BMP_temperature;BMP_pressure;BME280_temperature;BME280_humidity;BME280_pressure;Samples;Min_cycle;Max_cycle;Signal;HPM_P1;HPM_P2
2023/05/06 00:01:32;;;;;;;10.23;5.50;;;;;;;;;;5055258;28;20024;-78
2023/05/06 00:03:58;;;;;;;10.80;6.05;;;;;;;;;;5072864;28;20031;-77
2023/05/06 00:06:24;;;;;;;7.93;6.40;;;;;;;;;;5055307;28;20031;-76
2023/05/06 00:08:49;;;;;;;11.27;6.60;;;;;;;;;;5072746;28;20028;-78
2023/05/06 00:11:15;;;;;;;10.55;6.57;;;;;;;;;;5054596;28;20107;-77
2023/05/06 00:13:42;;;;;;;16.98;7.00;;;;;;;;;;5072402;28;20032;-78
2023/05/06 00:16:08;;;;;;;19.27;6.85;;;;;;;;;;5073173;28;20060;-78
2023/05/06 00:18:33;;;;;;;8.38;5.75;;;;;;;;;;5072866;28;20036;-78
2023/05/06 00:20:59;;;;;;;10.70;7.57;;;;;;;;;;5072926;28;20025;-78
2023/05/06 00:23:24;;;;;;;16.10;7.00;;;;;;;;;;5072947;28;20020;-78
2023/05/06 00:25:52;;;;;;;10.75;6.25;;;;;;;;;;5054955;28;20227;-78
2023/05/06 00:28:18;;;;;;;8.70;6.45;;;;;;;;;;5072367;28;20029;-78
2023/05/06 00:30:43;;;;;;;12.38;7.28;;;;;;;;;;5054612;28;20537;-78
2023/05/06 00:33:09;;;;;;;12.32;7.45;;;;;;;;;;5072251;28;20031;-78
2023/05/06 00:35:34;;;;;;;13.02;7.20;;;;;;;;;;5072182;28;20039;-78
2023/05/06 00:38:08;;;;;;;9.60;6.72;;;;;;;;;;5072925;28;20062;-78
2023/05/06 00:40:34;;;;;;;11.98;7.60;;;;;;;;;;5053994;28;20475;-77
2023/05/06 00:43:00;;;;;;;12.52;7.18;;;;;;;;;;5053547;28;20503;-78
2023/05/06 00:45:26;;;;;;;11.55;7.13;;;;;;;;;;5071571;28;20024;-78
2023/05/06 00:47:52;;;;;;;10.48;7.10;;;;;;;;;;5071979;28;20020;-78
2023/05/06 00:50:18;;;;;;;9.80;6.43;;;;;;;;;;5071937;28;20081;-78
2023/05/06 00:52:44;;;;;;;12.20;7.35;;;;;;;;;;5072282;28;20031;-79
2023/05/06 00:55:09;;;;;;;11.25;7.10;;;;;;;;;;5072084;28;20043;-78
2023/05/06 00:57:35;;;;;;;9.63;6.63;;;;;;;;;;5053525;28;20024;-80
2023/05/06 01:00:01;;;;;;;13.23;6.50;;;;;;;;;;5053633;28;20392;-77
2023/05/06 01:02:26;;;;;;;9.95;6.47;;;;;;;;;;5071326;28;20043;-77
2023/05/06 01:04:54;;;;;;;11.43;6.93;;;;;;;;;;5070697;28;20103;-78
2023/05/06 01:07:32;;;;;;;7.10;5.88;;;;;;;;;;5053231;28;20535;-75
2023/05/06 01:10:09;;;;;;;8.60;5.78;;;;;;;;;;5071969;28;20675;-77
2023/05/06 01:13:05;;;;;;;9.80;6.78;;;;;;;;;;5052804;28;20494;-77
2023/05/06 01:15:44;;;;;;;10.95;6.35;;;;;;;;;;5052932;28;20534;-77
2023/05/06 01:18:11;;;;;;;9.50;6.85;;;;;;;;;;5071139;28;20073;-78
2023/05/06 01:20:37;;;;;;;8.80;5.90;;;;;;;;;;5052603;28;20032;-78
2023/05/06 01:23:13;;;;;;;13.18;7.05;;;;;;;;;;5070647;28;20024;-78
2023/05/06 01:25:39;;;;;;;9.63;6.55;;;;;;;;;;5071039;28;20097;-77
2023/05/06 01:28:15;;;;;;;11.00;6.50;;;;;;;;;;5036479;28;20056;-79
2023/05/06 01:30:49;;;;;;;11.32;6.40;;;;;;;;;;5052396;28;20020;-78
2023/05/06 01:33:42;;;;;;;10.45;6.72;;;;;;;;;;5070663;28;20475;-78
2023/05/06 01:36:29;;;;;;;9.98;7.00;;;;;;;;;;5070700;28;20033;-78
2023/05/06 01:39:16;;;;;;;11.43;7.13;;;;;;;;;;5070149;28;20191;-78
2023/05/06 01:41:43;;;;;;;13.48;6.85;;;;;;;;;;5069775;28;20496;-77
2023/05/06 01:44:10;;;;;;;9.32;6.47;;;;;;;;;;5070521;28;20024;-77
2023/05/06 01:46:36;;;;;;;13.25;7.63;;;;;;;;;;5052396;28;20424;-79
2023/05/06 01:49:04;;;;;;;9.73;6.75;;;;;;;;;;5052728;28;20024;-78
2023/05/06 01:51:33;;;;;;;13.65;8.00;;;;;;;;;;5052524;28;20111;-77
2023/05/06 01:54:01;;;;;;;13.98;7.00;;;;;;;;;;5069945;28;20415;-78
2023/05/06 01:56:29;;;;;;;12.55;6.60;;;;;;;;;;5069814;28;20048;-78
2023/05/06 01:58:56;;;;;;;11.20;7.47;;;;;;;;;;5069971;28;20091;-77
2023/05/06 02:01:22;;;;;;;12.13;7.63;;;;;;;;;;5069712;28;20318;-78
2023/05/06 02:03:47;;;;;;;17.67;8.55;;;;;;;;;;5069675;28;20120;-78
2023/05/06 02:06:13;;;;;;;13.63;8.20;;;;;;;;;;5051650;28;20364;-78
2023/05/06 02:08:41;;;;;;;12.63;9.02;;;;;;;;;;5051552;28;20032;-77
2023/05/06 02:11:07;;;;;;;14.35;9.30;;;;;;;;;;5051440;28;20029;-77
2023/05/06 02:13:33;;;;;;;12.32;8.07;;;;;;;;;;5069680;28;20078;-77
2023/05/06 02:15:58;;;;;;;11.45;7.78;;;;;;;;;;5069507;28;20039;-78
2023/05/06 02:18:24;;;;;;;10.40;7.72;;;;;;;;;;5051413;28;20437;-77
2023/05/06 02:20:50;;;;;;;13.00;8.75;;;;;;;;;;5069022;28;20040;-77
2023/05/06 02:23:15;;;;;;;11.30;8.48;;;;;;;;;;5051570;28;20056;-77
2023/05/06 02:25:41;;;;;;;14.10;7.85;;;;;;;;;;5069084;28;20063;-77
2023/05/06 02:28:07;;;;;;;11.75;7.97;;;;;;;;;;5069375;28;20029;-77
2023/05/06 02:30:33;;;;;;;15.90;8.43;;;;;;;;;;5051647;28;20036;-78
2023/05/06 02:32:58;;;;;;;12.25;7.75;;;;;;;;;;5051214;28;20523;-77
2023/05/06 02:35:24;;;;;;;11.23;7.72;;;;;;;;;;5068985;28;20116;-77
2023/05/06 02:37:49;;;;;;;12.90;8.00;;;;;;;;;;5069337;28;20032;-77
2023/05/06 02:40:15;;;;;;;9.25;7.30;;;;;;;;;;5069275;28;20039;-77
2023/05/06 02:42:40;;;;;;;12.77;7.95;;;;;;;;;;5069508;28;20079;-79
2023/05/06 02:45:06;;;;;;;13.00;8.15;;;;;;;;;;5051422;28;20025;-77
2023/05/06 02:47:32;;;;;;;12.52;7.75;;;;;;;;;;5069571;28;20161;-78
2023/05/06 02:49:58;;;;;;;10.15;7.25;;;;;;;;;;5069956;28;20054;-78
2023/05/06 02:52:23;;;;;;;11.35;7.47;;;;;;;;;;5068935;28;20081;-78
2023/05/06 02:54:49;;;;;;;13.43;8.13;;;;;;;;;;5069228;28;20433;-77
2023/05/06 02:57:15;;;;;;;10.35;7.97;;;;;;;;;;5051679;28;20435;-78
2023/05/06 02:59:40;;;;;;;11.68;7.80;;;;;;;;;;5069557;28;20082;-78
2023/05/06 03:02:06;;;;;;;11.13;8.23;;;;;;;;;;5069265;28;20401;-78
2023/05/06 03:04:32;;;;;;;12.80;8.15;;;;;;;;;;5051627;28;20089;-78
2023/05/06 03:06:57;;;;;;;14.90;9.18;;;;;;;;;;5069499;28;20141;-77
2023/05/06 03:09:23;;;;;;;13.05;8.88;;;;;;;;;;5069210;28;20031;-78
2023/05/06 03:11:48;;;;;;;15.05;9.48;;;;;;;;;;5069506;28;20484;-79
2023/05/06 03:14:14;;;;;;;13.88;9.52;;;;;;;;;;5051690;28;20024;-78
2023/05/06 03:16:40;;;;;;;17.20;9.10;;;;;;;;;;5051874;28;20112;-78
2023/05/06 03:19:05;;;;;;;11.55;8.32;;;;;;;;;;5068859;28;20028;-76
2023/05/06 03:21:32;;;;;;;14.50;8.40;;;;;;;;;;5050691;28;20032;-77
2023/05/06 03:23:58;;;;;;;14.50;8.60;;;;;;;;;;5068933;28;20422;-77
2023/05/06 03:26:23;;;;;;;12.25;8.20;;;;;;;;;;5051014;28;20120;-78
2023/05/06 03:28:49;;;;;;;12.13;7.75;;;;;;;;;;5070862;28;20104;-77
2023/05/06 03:31:14;;;;;;;11.68;8.10;;;;;;;;;;5072737;28;20434;-77
2023/05/06 03:33:40;;;;;;;11.38;8.60;;;;;;;;;;5072550;28;20031;-77
2023/05/06 03:36:06;;;;;;;12.52;8.38;;;;;;;;;;5072574;28;20499;-78
2023/05/06 03:38:31;;;;;;;12.43;7.82;;;;;;;;;;5054767;28;20396;-76
2023/05/06 03:40:57;;;;;;;13.00;8.40;;;;;;;;;;5054711;28;20056;-77
2023/05/06 03:43:22;;;;;;;15.43;9.18;;;;;;;;;;5073214;28;20027;-78
2023/05/06 03:45:48;;;;;;;12.93;9.77;;;;;;;;;;5073393;28;20107;-78
2023/05/06 03:48:13;;;;;;;14.55;9.13;;;;;;;;;;5054687;28;20036;-78
2023/05/06 03:50:39;;;;;;;15.05;9.70;;;;;;;;;;5073216;28;20108;-77
2023/05/06 03:53:05;;;;;;;16.13;9.77;;;;;;;;;;5072264;28;20073;-76
2023/05/06 03:55:31;;;;;;;16.25;9.90;;;;;;;;;;5072039;28;20393;-76
2023/05/06 03:57:56;;;;;;;11.20;8.77;;;;;;;;;;5072133;28;20111;-77
2023/05/06 04:00:22;;;;;;;15.70;9.10;;;;;;;;;;5054308;28;20439;-78
2023/05/06 04:02:47;;;;;;;13.02;9.15;;;;;;;;;;5053840;28;20147;-77
2023/05/06 04:05:13;;;;;;;13.63;8.93;;;;;;;;;;5071805;28;20032;-77
2023/05/06 04:07:38;;;;;;;12.35;9.07;;;;;;;;;;5071430;28;20030;-78
2023/05/06 04:10:05;;;;;;;17.27;9.48;;;;;;;;;;5071849;28;20387;-77
2023/05/06 04:12:30;;;;;;;14.85;8.98;;;;;;;;;;5053166;28;20119;-77
2023/05/06 04:14:56;;;;;;;16.00;9.40;;;;;;;;;;5071915;28;20136;-76
2023/05/06 04:17:21;;;;;;;16.73;10.43;;;;;;;;;;5071756;28;20059;-77
2023/05/06 04:19:46;;;;;;;15.38;9.15;;;;;;;;;;5070194;28;20062;-77
2023/05/06 04:22:12;;;;;;;15.02;9.15;;;;;;;;;;5053458;28;20372;-77
2023/05/06 04:24:37;;;;;;;13.35;8.50;;;;;;;;;;5075278;28;20032;-78
2023/05/06 04:27:03;;;;;;;12.50;8.68;;;;;;;;;;5053294;28;20558;-77
2023/05/06 04:29:29;;;;;;;13.60;10.68;;;;;;;;;;5071365;28;20089;-77
2023/05/06 04:31:54;;;;;;;11.68;8.20;;;;;;;;;;5071526;28;20024;-77
2023/05/06 04:34:20;;;;;;;15.38;8.65;;;;;;;;;;5070878;28;20024;-78
2023/05/06 04:36:48;;;;;;;11.18;8.50;;;;;;;;;;5071584;28;20032;-78
2023/05/06 04:39:15;;;;;;;15.35;9.68;;;;;;;;;;5053958;28;20020;-78
2023/05/06 04:41:43;;;;;;;12.00;8.40;;;;;;;;;;5054368;28;20115;-75
2023/05/06 04:44:09;;;;;;;12.52;8.85;;;;;;;;;;5070251;28;20747;-77
2023/05/06 04:46:35;;;;;;;15.93;8.90;;;;;;;;;;5069439;28;20085;-77
2023/05/06 04:49:00;;;;;;;14.10;9.73;;;;;;;;;;5053030;28;20476;-78
2023/05/06 04:51:26;;;;;;;13.07;9.18;;;;;;;;;;5069857;28;20024;-78
2023/05/06 04:53:51;;;;;;;11.55;8.45;;;;;;;;;;5052797;28;20135;-78
2023/05/06 04:56:17;;;;;;;14.90;9.00;;;;;;;;;;5069911;28;20088;-78
2023/05/06 04:58:43;;;;;;;13.20;8.88;;;;;;;;;;5071382;28;20090;-77
2023/05/06 05:01:09;;;;;;;17.38;9.65;;;;;;;;;;5053202;28;20540;-77
2023/05/06 05:03:35;;;;;;;13.25;9.15;;;;;;;;;;5052124;28;20024;-78
2023/05/06 05:06:00;;;;;;;15.05;9.02;;;;;;;;;;5069400;28;20026;-77
2023/05/06 05:08:26;;;;;;;15.77;9.20;;;;;;;;;;5070604;28;20044;-78
2023/05/06 05:10:51;;;;;;;12.18;8.70;;;;;;;;;;5069057;28;20032;-78
2023/05/06 05:13:17;;;;;;;14.95;9.13;;;;;;;;;;5052192;28;20020;-77
2023/05/06 05:15:43;;;;;;;15.05;9.85;;;;;;;;;;5069938;28;20077;-77
2023/05/06 05:18:09;;;;;;;15.10;9.40;;;;;;;;;;5070197;28;20476;-77
2023/05/06 05:20:34;;;;;;;21.25;12.93;;;;;;;;;;5070076;28;20484;-77
2023/05/06 05:23:00;;;;;;;19.02;12.20;;;;;;;;;;5070434;28;20333;-77
2023/05/06 05:25:25;;;;;;;12.70;8.65;;;;;;;;;;5070214;28;20044;-78
2023/05/06 05:27:51;;;;;;;17.65;9.27;;;;;;;;;;5068755;28;20465;-77
2023/05/06 05:30:17;;;;;;;17.05;10.80;;;;;;;;;;5069176;28;20024;-76
2023/05/06 05:32:42;;;;;;;15.80;9.68;;;;;;;;;;5052492;28;20532;-78
2023/05/06 05:35:09;;;;;;;12.23;8.70;;;;;;;;;;5052131;28;20232;-78
2023/05/06 05:37:35;;;;;;;14.45;9.68;;;;;;;;;;5070368;28;20162;-77
2023/05/06 05:40:01;;;;;;;17.77;9.52;;;;;;;;;;5070599;28;20493;-78
2023/05/06 05:42:26;;;;;;;13.55;8.95;;;;;;;;;;5052482;28;20035;-78
2023/05/06 05:44:52;;;;;;;13.50;8.65;;;;;;;;;;5069473;28;20162;-76
2023/05/06 05:47:18;;;;;;;16.58;9.32;;;;;;;;;;5069768;28;20032;-78
2023/05/06 05:49:43;;;;;;;14.98;9.18;;;;;;;;;;5051492;28;20035;-78
2023/05/06 05:52:09;;;;;;;15.50;9.25;;;;;;;;;;5069951;28;20031;-77
2023/05/06 05:54:34;;;;;;;11.60;8.77;;;;;;;;;;5068716;28;20052;-77
2023/05/06 05:57:00;;;;;;;11.95;9.15;;;;;;;;;;5051820;28;20021;-78
2023/05/06 05:59:27;;;;;;;17.25;9.57;;;;;;;;;;5070270;28;20088;-78
2023/05/06 06:01:52;;;;;;;12.02;9.02;;;;;;;;;;5034667;28;20040;-77
2023/05/06 06:04:18;;;;;;;13.27;9.95;;;;;;;;;;5051381;28;20028;-77
2023/05/06 06:06:43;;;;;;;12.38;9.02;;;;;;;;;;5069454;28;20480;-78
2023/05/06 06:09:09;;;;;;;13.38;9.10;;;;;;;;;;5069988;28;20032;-77
2023/05/06 06:11:35;;;;;;;17.30;9.65;;;;;;;;;;5069882;28;20027;-77
2023/05/06 06:14:00;;;;;;;13.10;9.85;;;;;;;;;;5070274;28;20028;-77
2023/05/06 06:16:27;;;;;;;14.77;9.52;;;;;;;;;;5070256;28;20032;-79
2023/05/06 06:18:52;;;;;;;16.52;8.90;;;;;;;;;;5070750;28;20451;-78
2023/05/06 06:21:18;;;;;;;18.50;10.10;;;;;;;;;;5070896;28;20107;-78
2023/05/06 06:23:43;;;;;;;14.43;9.40;;;;;;;;;;5069703;28;20476;-78
2023/05/06 06:26:09;;;;;;;10.82;8.30;;;;;;;;;;5070621;28;20028;-79
2023/05/06 06:28:35;;;;;;;15.50;9.50;;;;;;;;;;5070055;28;20105;-79
2023/05/06 06:31:01;;;;;;;12.48;8.02;;;;;;;;;;5051668;28;20081;-78
2023/05/06 06:33:26;;;;;;;16.60;9.50;;;;;;;;;;5069066;28;20077;-79
2023/05/06 06:35:52;;;;;;;18.88;9.73;;;;;;;;;;5069824;28;20047;-77
2023/05/06 06:38:17;;;;;;;13.73;8.50;;;;;;;;;;5068736;28;20184;-78
2023/05/06 06:40:43;;;;;;;16.17;8.43;;;;;;;;;;5070430;28;20052;-78
2023/05/06 06:43:08;;;;;;;12.20;8.63;;;;;;;;;;5069762;28;20024;-78
2023/05/06 06:45:34;;;;;;;12.80;8.57;;;;;;;;;;5068863;28;20040;-77
2023/05/06 06:48:01;;;;;;;16.95;9.25;;;;;;;;;;5068949;28;20017;-78
2023/05/06 06:50:26;;;;;;;13.57;8.68;;;;;;;;;;5070674;28;20036;-78
2023/05/06 06:52:52;;;;;;;15.10;9.93;;;;;;;;;;5070497;28;20024;-78
2023/05/06 06:55:17;;;;;;;14.25;9.07;;;;;;;;;;5070987;28;20048;-78
2023/05/06 06:57:43;;;;;;;12.02;8.60;;;;;;;;;;5070364;28;20096;-78
2023/05/06 07:00:09;;;;;;;13.27;9.50;;;;;;;;;;5070119;28;20087;-78
2023/05/06 07:02:34;;;;;;;13.50;9.23;;;;;;;;;;5051803;28;20020;-78
2023/05/06 07:05:00;;;;;;;14.48;8.98;;;;;;;;;;5073896;28;20113;-77
2023/05/06 07:07:26;;;;;;;14.75;9.75;;;;;;;;;;5072026;28;20028;-78
2023/05/06 07:09:51;;;;;;;13.68;8.40;;;;;;;;;;5055222;28;20383;-78
2023/05/06 07:12:17;;;;;;;16.08;9.38;;;;;;;;;;5039293;28;20089;-78
2023/05/06 07:14:42;;;;;;;12.52;8.77;;;;;;;;;;5073165;28;20044;-78
2023/05/06 07:17:08;;;;;;;14.70;7.63;;;;;;;;;;5073365;28;20333;-78
2023/05/06 07:19:33;;;;;;;15.80;8.80;;;;;;;;;;5073644;28;20055;-78
2023/05/06 07:21:59;;;;;;;9.80;8.13;;;;;;;;;;5072924;28;20035;-78
2023/05/06 07:24:25;;;;;;;12.23;9.57;;;;;;;;;;5072166;28;20083;-78
2023/05/06 07:26:50;;;;;;;15.32;7.85;;;;;;;;;;5055481;28;20072;-78
2023/05/06 07:29:16;;;;;;;9.18;7.15;;;;;;;;;;5072855;28;20469;-77
2023/05/06 07:31:41;;;;;;;14.73;8.82;;;;;;;;;;5054705;28;20094;-77
2023/05/06 07:34:07;;;;;;;8.70;6.78;;;;;;;;;;5055552;28;20028;-79
2023/05/06 07:36:39;;;;;;;11.00;7.72;;;;;;;;;;5073078;28;20544;-78
2023/05/06 07:39:08;;;;;;;10.27;6.57;;;;;;;;;;5055044;28;20024;-78
2023/05/06 07:41:34;;;;;;;12.20;7.15;;;;;;;;;;5072820;28;20036;-79
2023/05/06 07:43:59;;;;;;;10.82;7.78;;;;;;;;;;5054855;28;20082;-78
2023/05/06 07:46:25;;;;;;;9.02;7.68;;;;;;;;;;5073103;28;20055;-78
2023/05/06 07:48:50;;;;;;;15.70;7.95;;;;;;;;;;5073265;28;20028;-79
2023/05/06 07:51:16;;;;;;;10.15;7.15;;;;;;;;;;5073233;28;20017;-79
2023/05/06 07:53:42;;;;;;;9.50;7.43;;;;;;;;;;5072526;28;20052;-78
2023/05/06 07:56:07;;;;;;;11.32;8.05;;;;;;;;;;5072737;28;20301;-78
2023/05/06 07:58:33;;;;;;;10.30;7.38;;;;;;;;;;5055234;28;20321;-79
2023/05/06 08:00:59;;;;;;;10.15;7.10;;;;;;;;;;5071382;28;20017;-78
2023/05/06 08:03:25;;;;;;;8.68;7.45;;;;;;;;;;5071181;28;20058;-77
2023/05/06 08:05:51;;;;;;;10.20;7.03;;;;;;;;;;5072766;28;20027;-78
2023/05/06 08:08:21;;;;;;;10.80;7.20;;;;;;;;;;5054979;28;20481;-78
2023/05/06 08:10:46;;;;;;;10.73;6.60;;;;;;;;;;5072052;28;20024;-78
2023/05/06 08:13:12;;;;;;;10.57;6.70;;;;;;;;;;5072888;28;20028;-78
2023/05/06 08:15:38;;;;;;;16.55;7.05;;;;;;;;;;5053764;28;20020;-79
2023/05/06 08:18:04;;;;;;;5.55;4.88;;;;;;;;;;5072118;28;20163;-78
2023/05/06 08:20:30;;;;;;;7.88;5.50;;;;;;;;;;5072631;28;20480;-79
2023/05/06 08:22:55;;;;;;;10.43;5.53;;;;;;;;;;5072760;28;20039;-79
2023/05/06 08:25:21;;;;;;;7.43;5.70;;;;;;;;;;5072368;28;20025;-79
2023/05/06 08:27:46;;;;;;;6.93;5.03;;;;;;;;;;5070326;28;20098;-78
2023/05/06 08:30:12;;;;;;;10.32;4.93;;;;;;;;;;5070779;28;20510;-78
2023/05/06 08:32:38;;;;;;;9.45;5.03;;;;;;;;;;5054294;28;20211;-78
2023/05/06 08:35:06;;;;;;;6.28;4.90;;;;;;;;;;5053876;28;20040;-78
2023/05/06 08:37:31;;;;;;;7.38;4.97;;;;;;;;;;5072056;28;20024;-78
2023/05/06 08:39:57;;;;;;;6.38;4.90;;;;;;;;;;5053510;28;20078;-78
2023/05/06 08:42:24;;;;;;;8.13;4.93;;;;;;;;;;5053944;28;20374;-77
2023/05/06 08:44:51;;;;;;;6.15;4.68;;;;;;;;;;5053020;28;20086;-79
2023/05/06 08:47:21;;;;;;;5.63;4.50;;;;;;;;;;5071622;28;20033;-78
2023/05/06 08:49:47;;;;;;;8.43;5.20;;;;;;;;;;5071384;28;20025;-78
2023/05/06 08:52:13;;;;;;;4.75;4.15;;;;;;;;;;5053527;28;20020;-77
2023/05/06 08:54:40;;;;;;;6.05;4.80;;;;;;;;;;5072007;28;20044;-77
2023/05/06 08:57:10;;;;;;;7.18;4.47;;;;;;;;;;5053711;28;20024;-79
2023/05/06 08:59:36;;;;;;;8.10;4.90;;;;;;;;;;5071874;28;20415;-77
2023/05/06 09:02:03;;;;;;;7.97;4.70;;;;;;;;;;5071404;28;20069;-77
2023/05/06 09:04:29;;;;;;;6.55;5.28;;;;;;;;;;5071754;28;20028;-77
2023/05/06 09:06:57;;;;;;;6.70;4.63;;;;;;;;;;5072420;28;20025;-79
2023/05/06 09:09:22;;;;;;;7.13;4.90;;;;;;;;;;5071577;28;20089;-77
2023/05/06 09:11:53;;;;;;;8.90;5.22;;;;;;;;;;5071599;28;20020;-77
2023/05/06 09:14:20;;;;;;;9.07;4.78;;;;;;;;;;5053392;28;20249;-78
2023/05/06 09:16:48;;;;;;;5.35;4.35;;;;;;;;;;5070618;28;20047;-78
2023/05/06 09:19:15;;;;;;;7.60;4.70;;;;;;;;;;5053597;28;20082;-78
2023/05/06 09:21:43;;;;;;;5.45;4.93;;;;;;;;;;5052714;28;20027;-77
2023/05/06 09:24:10;;;;;;;9.25;4.95;;;;;;;;;;5071434;28;20078;-77
2023/05/06 09:26:37;;;;;;;5.63;4.32;;;;;;;;;;5052814;28;20456;-79
2023/05/06 09:29:04;;;;;;;8.27;4.00;;;;;;;;;;5053093;28;20109;-79
2023/05/06 09:31:31;;;;;;;5.07;3.83;;;;;;;;;;5070724;28;20025;-77
2023/05/06 09:33:58;;;;;;;6.35;4.32;;;;;;;;;;5070973;28;20063;-78
2023/05/06 09:36:26;;;;;;;6.32;4.38;;;;;;;;;;5070643;28;20039;-78
2023/05/06 09:38:55;;;;;;;4.95;4.47;;;;;;;;;;5070663;28;20384;-78
2023/05/06 09:41:26;;;;;;;8.38;4.47;;;;;;;;;;5052436;28;20029;-78
2023/05/06 09:43:52;;;;;;;10.03;4.50;;;;;;;;;;5070868;28;20537;-77
2023/05/06 09:46:20;;;;;;;6.30;4.47;;;;;;;;;;5053227;28;20020;-78
2023/05/06 09:48:48;;;;;;;5.05;3.92;;;;;;;;;;5071321;28;20047;-78
2023/05/06 09:51:14;;;;;;;7.40;3.95;;;;;;;;;;5052987;28;20025;-78
2023/05/06 09:53:40;;;;;;;5.93;3.97;;;;;;;;;;5071192;28;20055;-78
2023/05/06 09:56:07;;;;;;;4.32;3.78;;;;;;;;;;5052526;28;20020;-78
2023/05/06 09:58:34;;;;;;;5.97;4.10;;;;;;;;;;5071077;28;20029;-79
2023/05/06 10:01:05;;;;;;;7.15;4.20;;;;;;;;;;5052018;28;20036;-78
2023/05/06 10:03:32;;;;;;;5.15;4.47;;;;;;;;;;5052677;28;20056;-79
2023/05/06 10:05:59;;;;;;;6.75;4.28;;;;;;;;;;5052976;28;20587;-77
2023/05/06 10:08:26;;;;;;;7.82;4.07;;;;;;;;;;5070700;28;20016;-79
2023/05/06 10:10:52;;;;;;;6.78;3.88;;;;;;;;;;5052556;28;20567;-78
2023/05/06 10:13:23;;;;;;;6.70;5.00;;;;;;;;;;5053238;28;20027;-78
2023/05/06 10:15:49;;;;;;;4.30;3.90;;;;;;;;;;5052197;28;20024;-78
2023/05/06 10:18:16;;;;;;;4.15;3.45;;;;;;;;;;5070686;28;20032;-78
2023/05/06 10:20:43;;;;;;;7.85;4.18;;;;;;;;;;5052175;28;20020;-78
2023/05/06 10:23:15;;;;;;;4.35;3.95;;;;;;;;;;5052583;28;20031;-79
2023/05/06 10:25:43;;;;;;;4.88;4.47;;;;;;;;;;5052749;28;20093;-78
2023/05/06 10:28:09;;;;;;;5.70;4.15;;;;;;;;;;5052319;28;20031;-79
2023/05/06 10:30:37;;;;;;;3.42;3.10;;;;;;;;;;5052791;28;20035;-79
2023/05/06 10:33:06;;;;;;;4.68;3.80;;;;;;;;;;5052211;28;20044;-78
2023/05/06 10:35:41;;;;;;;4.25;3.83;;;;;;;;;;5070573;28;20093;-78
2023/05/06 10:38:25;;;;;;;7.15;4.18;;;;;;;;;;5051922;28;20043;-78
2023/05/06 10:40:51;;;;;;;6.90;4.78;;;;;;;;;;5070251;28;20024;-78
2023/05/06 10:43:24;;;;;;;6.28;4.22;;;;;;;;;;5071094;28;20066;-78
2023/05/06 10:46:07;;;;;;;4.18;3.72;;;;;;;;;;5070792;28;20392;-77
2023/05/06 10:48:38;;;;;;;3.25;2.95;;;;;;;;;;5052941;28;20115;-78
2023/05/06 10:51:15;;;;;;;8.02;4.10;;;;;;;;;;5053184;28;20376;-78
2023/05/06 10:54:09;;;;;;;8.52;4.32;;;;;;;;;;5052781;28;20053;-79
2023/05/06 10:57:01;;;;;;;5.45;3.80;;;;;;;;;;5052031;28;20021;-79
2023/05/06 10:59:30;;;;;;;4.55;3.22;;;;;;;;;;5070539;28;20028;-79
2023/05/06 11:02:02;;;;;;;6.28;4.82;;;;;;;;;;5070098;28;20032;-78
2023/05/06 11:04:30;;;;;;;5.10;4.05;;;;;;;;;;5051628;28;20029;-78
2023/05/06 11:07:06;;;;;;;6.57;4.85;;;;;;;;;;5051688;28;20024;-79
2023/05/06 11:09:32;;;;;;;6.88;4.47;;;;;;;;;;5070270;28;20108;-80
2023/05/06 11:12:04;;;;;;;7.18;4.53;;;;;;;;;;5035852;28;20527;-79
2023/05/06 11:14:37;;;;;;;4.90;4.40;;;;;;;;;;5070065;28;20040;-77
2023/05/06 11:17:08;;;;;;;5.32;3.90;;;;;;;;;;5051506;28;20036;-78
2023/05/06 11:19:38;;;;;;;4.93;3.72;;;;;;;;;;5070466;28;20028;-78
2023/05/06 11:22:05;;;;;;;4.90;3.30;;;;;;;;;;5053193;28;20457;-78
2023/05/06 11:24:38;;;;;;;3.42;3.00;;;;;;;;;;5071037;28;20024;-79
2023/05/06 11:27:04;;;;;;;3.47;3.17;;;;;;;;;;5052934;28;20067;-78
2023/05/06 11:29:30;;;;;;;5.22;3.80;;;;;;;;;;5070998;28;20072;-78
2023/05/06 11:31:56;;;;;;;6.03;3.40;;;;;;;;;;5052346;28;20043;-79
2023/05/06 11:34:23;;;;;;;4.43;3.67;;;;;;;;;;5053699;28;20375;-79
2023/05/06 11:37:01;;;;;;;5.03;4.07;;;;;;;;;;5053510;28;20457;-78
2023/05/06 11:39:29;;;;;;;6.32;3.97;;;;;;;;;;5052368;28;20079;-78
2023/05/06 11:41:57;;;;;;;8.15;4.20;;;;;;;;;;5071056;28;20024;-78
2023/05/06 11:44:27;;;;;;;4.68;3.58;;;;;;;;;;5071234;28;20495;-78
2023/05/06 11:46:57;;;;;;;7.10;3.47;;;;;;;;;;5052526;28;20177;-78
2023/05/06 11:49:24;;;;;;;5.45;3.58;;;;;;;;;;5054796;28;20372;-78
2023/05/06 11:51:50;;;;;;;5.65;2.58;;;;;;;;;;5075412;28;20098;-77
2023/05/06 11:54:17;;;;;;;3.38;2.67;;;;;;;;;;5075935;28;20045;-78
2023/05/06 11:56:51;;;;;;;3.80;2.55;;;;;;;;;;5058415;28;20063;-79
2023/05/06 11:59:24;;;;;;;4.45;3.17;;;;;;;;;;5058147;28;20021;-79
2023/05/06 12:01:50;;;;;;;2.95;2.08;;;;;;;;;;5041779;28;20037;-77
2023/05/06 12:04:15;;;;;;;5.20;2.38;;;;;;;;;;5056109;28;20502;-79
2023/05/06 12:06:41;;;;;;;4.38;2.97;;;;;;;;;;5056408;28;20409;-78
2023/05/06 12:09:26;;;;;;;2.17;1.98;;;;;;;;;;5066467;28;20092;-75
2023/05/06 12:12:31;;;;;;;3.90;2.63;;;;;;;;;;5083652;28;20045;-78
2023/05/06 12:15:53;;;;;;;8.27;2.50;;;;;;;;;;5080303;28;20032;-76
2023/05/06 12:18:26;;;;;;;5.50;2.40;;;;;;;;;;5014453;28;20497;-77
2023/05/06 12:21:18;;;;;;;4.40;2.10;;;;;;;;;;5074928;28;20102;-79
2023/05/06 12:24:03;;;;;;;5.43;2.38;;;;;;;;;;5057731;28;20436;-82
2023/05/06 12:26:48;;;;;;;2.47;1.92;;;;;;;;;;5076879;28;20028;-77
2023/05/06 12:29:16;;;;;;;3.42;2.78;;;;;;;;;;5074289;28;20507;-78
2023/05/06 12:31:48;;;;;;;4.72;2.20;;;;;;;;;;5072611;28;20098;-77
2023/05/06 12:34:17;;;;;;;4.10;1.88;;;;;;;;;;5072151;28;20032;-77
2023/05/06 12:36:45;;;;;;;3.42;1.83;;;;;;;;;;5054610;28;20447;-78
2023/05/06 12:39:12;;;;;;;6.00;2.30;;;;;;;;;;5037152;28;20119;-77
2023/05/06 12:41:43;;;;;;;3.03;2.22;;;;;;;;;;5054055;28;20021;-77
2023/05/06 12:44:38;;;;;;;3.58;1.67;;;;;;;;;;5072243;28;20024;-76
2023/05/06 12:47:20;;;;;;;2.25;1.80;;;;;;;;;;5035984;28;20067;-77
2023/05/06 12:49:54;;;;;;;3.40;2.05;;;;;;;;;;5072807;28;20028;-77
2023/05/06 12:52:26;;;;;;;3.05;2.13;;;;;;;;;;5054356;28;20048;-76
2023/05/06 12:54:52;;;;;;;2.50;2.30;;;;;;;;;;5071620;28;20078;-76
2023/05/06 12:57:19;;;;;;;4.55;2.65;;;;;;;;;;5053716;28;20481;-77
2023/05/06 12:59:45;;;;;;;2.50;2.30;;;;;;;;;;5053361;28;20020;-76
2023/05/06 13:02:11;;;;;;;4.25;2.30;;;;;;;;;;5052670;28;20446;-77
2023/05/06 13:04:37;;;;;;;5.38;2.60;;;;;;;;;;5053269;28;20638;-77
2023/05/06 13:07:02;;;;;;;5.25;2.75;;;;;;;;;;5053122;28;20035;-76
2023/05/06 13:09:28;;;;;;;15.52;7.78;;;;;;;;;;5071402;28;20082;-76
2023/05/06 13:11:54;;;;;;;11.15;2.80;;;;;;;;;;5071685;28;20029;-77
2023/05/06 13:14:20;;;;;;;3.63;1.95;;;;;;;;;;5053183;28;20457;-77
2023/05/06 13:16:46;;;;;;;4.05;1.85;;;;;;;;;;5070880;28;20039;-78
2023/05/06 13:19:12;;;;;;;5.35;1.98;;;;;;;;;;5071149;28;20020;-76
2023/05/06 13:21:41;;;;;;;3.13;1.85;;;;;;;;;;5071115;28;20495;-77
2023/05/06 13:24:07;;;;;;;2.70;1.83;;;;;;;;;;5052700;28;20044;-77
2023/05/06 13:26:34;;;;;;;2.42;1.73;;;;;;;;;;5071021;28;20115;-76
2023/05/06 13:28:59;;;;;;;3.55;1.42;;;;;;;;;;5071169;28;20380;-80
2023/05/06 13:31:27;;;;;;;3.88;1.50;;;;;;;;;;5071084;28;20045;-77
2023/05/06 13:33:54;;;;;;;4.68;2.20;;;;;;;;;;5053249;28;20112;-78
2023/05/06 13:36:20;;;;;;;4.75;2.28;;;;;;;;;;5053206;28;20031;-77
2023/05/06 13:38:45;;;;;;;1.85;1.52;;;;;;;;;;5086450;28;20077;-78
2023/05/06 13:41:11;;;;;;;3.63;2.08;;;;;;;;;;5052586;28;20107;-77
2023/05/06 13:43:36;;;;;;;3.25;1.70;;;;;;;;;;5052537;28;20481;-78
2023/05/06 13:46:02;;;;;;;2.25;1.50;;;;;;;;;;5070216;28;20046;-78
2023/05/06 13:48:28;;;;;;;1.77;1.38;;;;;;;;;;5052681;28;20313;-76
2023/05/06 13:50:53;;;;;;;1.98;1.40;;;;;;;;;;5052928;28;20025;-78
2023/05/06 13:53:19;;;;;;;1.42;1.33;;;;;;;;;;5070571;28;20391;-77
2023/05/06 13:55:45;;;;;;;2.30;1.80;;;;;;;;;;5052711;28;20534;-78
2023/05/06 13:58:11;;;;;;;1.70;1.55;;;;;;;;;;5070536;28;20046;-79
2023/05/06 14:00:37;;;;;;;3.00;1.70;;;;;;;;;;5086632;28;20408;-77
2023/05/06 14:03:03;;;;;;;1.73;1.42;;;;;;;;;;5085916;28;20034;-77
2023/05/06 14:05:29;;;;;;;2.22;1.25;;;;;;;;;;5070483;28;20024;-77
2023/05/06 14:07:54;;;;;;;2.78;1.40;;;;;;;;;;5070231;28;20020;-76
2023/05/06 14:10:20;;;;;;;3.80;2.25;;;;;;;;;;5052064;28;20435;-77
2023/05/06 14:12:46;;;;;;;3.03;1.95;;;;;;;;;;5052042;28;20024;-78
2023/05/06 14:15:15;;;;;;;3.53;2.53;;;;;;;;;;5069850;28;20044;-78
2023/05/06 14:17:41;;;;;;;6.25;3.85;;;;;;;;;;5052289;28;20024;-78
2023/05/06 14:20:08;;;;;;;5.13;4.38;;;;;;;;;;5085634;28;20376;-78
2023/05/06 14:22:35;;;;;;;8.95;6.55;;;;;;;;;;5035565;28;20033;-76
2023/05/06 14:25:01;;;;;;;6.00;3.95;;;;;;;;;;5085692;28;20039;-78
2023/05/06 14:27:26;;;;;;;5.38;3.17;;;;;;;;;;5070541;28;20024;-78
2023/05/06 14:29:52;;;;;;;8.27;4.05;;;;;;;;;;5052462;28;20032;-78
2023/05/06 14:32:18;;;;;;;8.27;3.30;;;;;;;;;;5070168;28;20056;-77
2023/05/06 14:34:43;;;;;;;2.50;1.90;;;;;;;;;;5086169;28;20032;-78
2023/05/06 14:37:09;;;;;;;3.45;2.15;;;;;;;;;;5052161;28;20059;-78
2023/05/06 14:39:34;;;;;;;1.90;1.75;;;;;;;;;;5051899;28;20048;-78